^^
Meteo Knjazevac Station Historical Data
Daily Summary for November 3, 2021 Units:  Metric    English   Both
Daily Weekly Monthly Yearly Custom
  High: Low: Average:
Temperature: 6.5 °C 3 °C 4.5 °C
Dew Point: 6.3 °C 2.8 °C 4.3 °C
Humidity: 99% 99% 99%
Wind Speed: 4.8km/h 0km/h 2.3km/h
Wind Gust: 11.3km/h - -
Wind- - West
Pressure: 1016.8 hPa 1015.1 hPa -
Precipitation: 0 mm    
Historical Graphs
 
 
Tabular Data for November 3, 2021
Time Temperature Dew Point Pressure Wind Wind Speed Wind Gust Humidity Rainfall Rate (Hourly) solar Conditions
00:00 6.5 °C 6.3 °C 1015.1 hPa WSW 3.2 km/h 8 km/h 99% 0 mm 0 W/m2
00:10 6.5 °C 6.3 °C 1015.1 hPa West 4.8 km/h 6.4 km/h 99% 0 mm 0 W/m2
00:20 6.4 °C 6.3 °C 1015.1 hPa West 4.8 km/h 9.7 km/h 99% 0 mm 0 W/m2
00:30 6.3 °C 6.2 °C 1015.1 hPa WSW 3.2 km/h 8 km/h 99% 0 mm 0 W/m2
00:40 6.2 °C 6.1 °C 1015.5 hPa WSW 1.6 km/h 4.8 km/h 99% 0 mm 0 W/m2
00:50 6 °C 5.8 °C 1015.5 hPa WSW 1.6 km/h 4.8 km/h 99% 0 mm 0 W/m2
01:00 5.8 °C 5.7 °C 1015.5 hPa WSW 1.6 km/h 3.2 km/h 99% 0 mm 0 W/m2
01:10 5.7 °C 5.6 °C 1015.1 hPa West 3.2 km/h 6.4 km/h 99% 0 mm 0 W/m2
01:20 5.5 °C 5.3 °C 1015.1 hPa West 3.2 km/h 4.8 km/h 99% 0 mm 0 W/m2
01:30 5.4 °C 5.3 °C 1015.5 hPa West 3.2 km/h 8 km/h 99% 0 mm 0 W/m2
01:40 5.2 °C 5.1 °C 1015.5 hPa West 3.2 km/h 9.7 km/h 99% 0 mm 0 W/m2
01:50 5 °C 4.8 °C 1015.5 hPa West 1.6 km/h 4.8 km/h 99% 0 mm 0 W/m2
02:00 4.7 °C 4.6 °C 1015.5 hPa WSW 3.2 km/h 9.7 km/h 99% 0 mm 0 W/m2
02:10 4.5 °C 4.3 °C 1015.5 hPa West 3.2 km/h 9.7 km/h 99% 0 mm 0 W/m2
02:20 4.4 °C 4.3 °C 1015.8 hPa West 3.2 km/h 11.3 km/h 99% 0 mm 0 W/m2
02:30 4.5 °C 4.3 °C 1015.8 hPa WNW 1.6 km/h 8 km/h 99% 0 mm 0 W/m2
02:40 4.4 °C 4.3 °C 1015.8 hPa WNW 3.2 km/h 8 km/h 99% 0 mm 0 W/m2
02:50 4.2 °C 4.1 °C 1015.8 hPa WNW 1.6 km/h 4.8 km/h 99% 0 mm 0 W/m2
03:00 4 °C 3.8 °C 1015.8 hPa NW 1.6 km/h 11.3 km/h 99% 0 mm 0 W/m2
03:10 4.2 °C 4.1 °C 1015.8 hPa Calm   8 km/h 99% 0 mm 0 W/m2
03:20 4.1 °C 3.9 °C 1016.1 hPa West 1.6 km/h 4.8 km/h 99% 0 mm 0 W/m2
03:30 3.9 °C 3.8 °C 1016.1 hPa WNW 1.6 km/h 4.8 km/h 99% 0 mm 0 W/m2
03:40 3.9 °C 3.8 °C 1016.1 hPa Calm   3.2 km/h 99% 0 mm 0 W/m2
03:50 3.8 °C 3.7 °C 1016.1 hPa WSW 1.6 km/h 4.8 km/h 99% 0 mm 0 W/m2
04:00 3.6 °C 3.4 °C 1016.5 hPa NNW 3.2 km/h 6.4 km/h 99% 0 mm 0 W/m2
04:10 3.6 °C 3.4 °C 1016.5 hPa Calm   9.7 km/h 99% 0 mm 0 W/m2
04:20 3.4 °C 3.3 °C 1016.5 hPa Calm   6.4 km/h 99% 0 mm 0 W/m2
04:30 3.3 °C 3.2 °C 1016.5 hPa Calm   6.4 km/h 99% 0 mm 0 W/m2
04:40 3.4 °C 3.3 °C 1016.5 hPa NW 1.6 km/h 4.8 km/h 99% 0 mm 0 W/m2
04:50 3.5 °C 3.3 °C 1016.5 hPa WNW 1.6 km/h 8 km/h 99% 0 mm 0 W/m2
05:00 3.3 °C 3.2 °C 1016.5 hPa NW 3.2 km/h 8 km/h 99% 0 mm 0 W/m2
05:10 3.2 °C 3.1 °C 1016.8 hPa WSW 1.6 km/h 11.3 km/h 99% 0 mm 0 W/m2
05:20 3.1 °C 2.9 °C 1016.5 hPa NW 1.6 km/h 6.4 km/h 99% 0 mm 0 W/m2
05:30 3 °C 2.8 °C 1016.8 hPa West 3.2 km/h 9.7 km/h 99% 0 mm 0 W/m2
05:40 3.2 °C 3.1 °C 1016.8 hPa West 4.8 km/h 11.3 km/h 99% 0 mm 0 W/m2
Knjazevac, Serbia
Compliments of Weather Underground - 2 mb